Time;durP1;ratioP1;P1;durP2;ratioP2;P2;SDS_P1;SDS_P2;PMS_P1;PMS_P2;Temp;Humidity;BMP_temperature;BMP_pressure;BME280_temperature;BME280_humidity;BME280_pressure;Samples;Min_cycle;Max_cycle;Signal;HPM_P1;HPM_P2
2022/11/20 00:01:23;;;;;;;20.55;9.57;;;;;;;5.11;65.88;99586.75;4483514;32;33573;-76
2022/11/20 00:03:53;;;;;;;21.17;10.18;;;;;;;5.13;65.72;99584.28;4484088;32;32955;-76
2022/11/20 00:06:21;;;;;;;25.52;9.90;;;;;;;5.23;65.46;99584.03;4483171;32;33303;-77
2022/11/20 00:08:49;;;;;;;18.40;9.05;;;;;;;5.38;64.83;99584.13;4483086;32;34304;-76
2022/11/20 00:11:18;;;;;;;21.40;10.25;;;;;;;6.34;61.15;99582.13;4483195;32;33387;-76
2022/11/20 00:13:48;;;;;;;24.95;12.75;;;;;;;6.42;61.15;99584.34;4483763;32;34636;-78
2022/11/20 00:16:17;;;;;;;25.35;11.48;;;;;;;4.84;68.09;99583.31;4483957;32;33475;-79
2022/11/20 00:18:46;;;;;;;26.60;12.07;;;;;;;5.58;65.81;99572.50;4468843;32;33318;-77
2022/11/20 00:21:21;;;;;;;24.05;10.63;;;;;;;6.07;63.86;99580.59;4484272;32;34034;-78
2022/11/20 00:23:50;;;;;;;28.80;12.85;;;;;;;6.24;63.38;99593.59;4473685;32;33521;-77
2022/11/20 00:26:20;;;;;;;25.85;12.52;;;;;;;6.03;63.82;99586.38;4484353;32;33375;-77
2022/11/20 00:28:51;;;;;;;25.58;10.70;;;;;;;5.88;64.28;99583.72;4484251;32;34448;-79
2022/11/20 00:31:18;;;;;;;22.95;11.38;;;;;;;5.63;65.50;99581.37;4484077;32;34727;-77
2022/11/20 00:33:46;;;;;;;24.10;11.52;;;;;;;5.45;66.38;99581.13;4483833;32;34374;-77
2022/11/20 00:36:16;;;;;;;23.55;10.98;;;;;;;5.58;66.47;99587.94;4481965;32;33394;-79
2022/11/20 00:38:44;;;;;;;25.12;12.60;;;;;;;4.77;68.76;99600.78;4483924;32;33650;-76
2022/11/20 00:41:14;;;;;;;24.52;11.63;;;;;;;4.38;70.98;99611.09;4484117;32;34496;-77
2022/11/20 00:43:42;;;;;;;23.95;11.18;;;;;;;4.19;72.89;99603.00;4483724;32;33657;-76
2022/11/20 00:46:15;;;;;;;21.87;10.93;;;;;;;5.28;68.87;99581.78;4483642;32;34094;-76
2022/11/20 00:48:43;;;;;;;22.87;10.93;;;;;;;5.07;68.95;99583.91;4484478;32;33913;-78
2022/11/20 00:51:13;;;;;;;20.48;9.63;;;;;;;5.20;67.89;99581.31;4483863;32;34840;-76
2022/11/20 00:53:40;;;;;;;18.25;8.82;;;;;;;5.41;65.93;99573.13;4483836;32;33509;-76
2022/11/20 00:56:14;;;;;;;18.55;8.95;;;;;;;5.25;65.79;99572.22;4469126;32;31893;-78
2022/11/20 00:58:44;;;;;;;20.75;8.57;;;;;;;5.29;64.99;99569.03;4484059;32;32371;-77
2022/11/20 01:01:14;;;;;;;15.88;7.78;;;;;;;5.03;64.77;99569.09;4483357;32;33997;-75
2022/11/20 01:03:45;;;;;;;17.52;7.93;;;;;;;4.75;65.07;99564.75;4482836;32;34153;-78
2022/11/20 01:06:16;;;;;;;15.75;7.65;;;;;;;4.90;64.69;99576.00;4483559;32;33177;-78
2022/11/20 01:08:44;;;;;;;17.55;8.77;;;;;;;5.07;64.20;99576.19;4484106;32;33552;-75
2022/11/20 01:11:18;;;;;;;17.10;8.20;;;;;;;5.03;64.41;99581.94;4483628;32;33953;-77
2022/11/20 01:13:48;;;;;;;19.55;9.20;;;;;;;5.69;62.60;99591.13;4483772;32;33700;-76
2022/11/20 01:16:21;;;;;;;23.87;10.75;;;;;;;6.16;61.00;99589.66;4483578;32;33435;-79
2022/11/20 01:18:51;;;;;;;21.60;10.32;;;;;;;6.23;61.28;99591.78;4479002;32;34500;-77
2022/11/20 01:21:21;;;;;;;21.80;9.60;;;;;;;6.27;61.33;99598.88;4470857;32;33537;-78
2022/11/20 01:23:50;;;;;;;22.05;10.43;;;;;;;6.22;61.01;99605.44;4482278;32;36039;-78
2022/11/20 01:26:23;;;;;;;20.88;9.40;;;;;;;6.02;61.51;99606.84;4482178;32;34343;-78
2022/11/20 01:28:51;;;;;;;26.23;12.10;;;;;;;5.96;61.92;99596.19;4483634;32;34212;-78
2022/11/20 01:31:19;;;;;;;20.15;9.93;;;;;;;5.31;63.90;99590.56;4481818;32;34316;-76
2022/11/20 01:33:49;;;;;;;21.08;9.52;;;;;;;5.10;65.61;99597.81;4481827;32;33242;-76
2022/11/20 01:36:18;;;;;;;25.20;10.05;;;;;;;5.45;64.84;99585.41;4483139;32;33414;-76
2022/11/20 01:38:46;;;;;;;21.27;10.00;;;;;;;5.10;64.99;99584.09;4482561;32;34278;-78
2022/11/20 01:43:20;;;;;;;23.08;9.88;;;;;;;4.46;67.91;99588.53;4483070;32;33940;-75
2022/11/20 01:44:03;;;;;;;19.15;9.50;;;;;;;3.77;70.15;99592.53;4476666;32;33190;-79
2022/11/20 01:46:32;;;;;;;18.67;9.45;;;;;;;4.75;67.14;99577.59;4481941;32;32947;-75
2022/11/20 01:49:03;;;;;;;16.77;8.35;;;;;;;5.52;63.82;99572.13;4482629;32;33946;-76
2022/11/20 01:52:12;;;;;;;20.33;8.98;;;;;;;5.62;63.42;99576.13;4482055;32;33930;-75
2022/11/20 01:54:49;;;;;;;19.00;8.15;;;;;;;5.89;61.72;99564.03;4448274;32;33836;-75
2022/11/20 01:57:17;;;;;;;21.33;8.98;;;;;;;5.00;64.70;99559.50;4482892;32;33278;-78
2022/11/20 01:59:51;;;;;;;18.52;9.27;;;;;;;5.14;64.83;99568.09;4470631;32;33287;-77
2022/11/20 02:02:20;;;;;;;20.40;10.03;;;;;;;5.53;63.31;99568.75;4485278;32;34025;-76
2022/11/20 02:04:49;;;;;;;22.80;9.80;;;;;;;5.37;63.55;99566.03;4483980;32;33680;-78
2022/11/20 02:07:17;;;;;;;20.62;9.60;;;;;;;4.83;66.34;99570.38;4484267;32;33342;-79
2022/11/20 02:09:44;;;;;;;21.00;9.23;;;;;;;4.42;67.62;99572.06;4485303;32;33280;-75
2022/11/20 02:13:42;;;;;;;21.95;10.27;;;;;;;4.30;68.13;99586.66;4485571;32;34422;-77
2022/11/20 02:15:00;;;;;;;18.60;7.87;;;;;;;3.37;71.79;99581.22;4485026;32;33849;-79
2022/11/20 02:17:28;;;;;;;20.92;9.07;;;;;;;3.49;72.22;99570.12;4470409;32;32669;-78
2022/11/20 02:19:55;;;;;;;21.30;9.70;;;;;;;3.09;74.92;99576.69;4484501;32;34073;-76
2022/11/20 02:22:31;;;;;;;23.67;10.13;;;;;;;3.02;75.61;99577.06;4485460;32;33574;-77
2022/11/20 02:25:06;;;;;;;23.80;11.48;;;;;;;2.99;75.33;99589.63;4476721;32;34316;-77
2022/11/20 02:27:33;;;;;;;24.40;10.68;;;;;;;2.86;76.55;99599.00;4477214;32;34270;-76
2022/11/20 02:30:07;;;;;;;23.12;10.68;;;;;;;2.99;76.84;99594.75;4483760;32;34496;-78
2022/11/20 02:32:36;;;;;;;26.35;12.75;;;;;;;3.32;75.31;99575.75;4484385;32;33823;-78
2022/11/20 02:35:30;;;;;;;27.85;11.40;;;;;;;3.23;75.42;99565.78;4482443;32;34425;-78
2022/11/20 02:38:02;;;;;;;27.42;12.30;;;;;;;3.10;75.86;99568.25;4479474;32;33566;-78
2022/11/20 02:40:29;;;;;;;23.48;10.68;;;;;;;2.90;77.44;99567.75;4482050;32;33568;-78
2022/11/20 02:42:57;;;;;;;23.00;10.35;;;;;;;2.90;77.58;99569.41;4483538;32;33402;-76
2022/11/20 02:45:25;;;;;;;25.45;11.57;;;;;;;3.01;77.11;99567.59;4485142;32;33795;-77
2022/11/20 02:47:52;;;;;;;26.77;11.45;;;;;;;3.00;77.48;99565.84;4483782;32;34222;-77
2022/11/20 02:50:20;;;;;;;28.77;12.82;;;;;;;3.05;77.61;99554.25;4485411;32;33780;-78
2022/11/20 02:52:47;;;;;;;29.92;13.30;;;;;;;3.12;77.58;99566.69;4484177;32;33784;-79
2022/11/20 02:55:15;;;;;;;26.15;11.90;;;;;;;2.99;78.30;99570.06;4481634;32;33831;-78
2022/11/20 02:57:43;;;;;;;31.73;14.18;;;;;;;2.77;78.75;99577.88;4475188;32;34040;-76
2022/11/20 03:00:11;;;;;;;30.52;14.10;;;;;;;2.70;79.88;99567.97;4483108;32;33514;-76
2022/11/20 03:02:38;;;;;;;32.35;15.00;;;;;;;2.86;79.31;99547.84;4483567;32;33375;-77
2022/11/20 03:05:06;;;;;;;30.98;13.07;;;;;;;3.32;77.77;99551.06;4481118;32;34332;-78
2022/11/20 03:07:33;;;;;;;30.02;13.98;;;;;;;3.88;75.78;99544.56;4482619;32;32253;-77
2022/11/20 03:10:01;;;;;;;29.42;12.77;;;;;;;4.65;72.57;99532.50;4484278;32;33133;-77
2022/11/20 03:12:29;;;;;;;26.33;11.90;;;;;;;4.99;71.29;99542.34;4480659;32;33076;-78
2022/11/20 03:14:56;;;;;;;29.33;13.48;;;;;;;5.06;70.97;99534.25;4485058;32;34097;-77
2022/11/20 03:17:24;;;;;;;28.15;12.55;;;;;;;4.91;71.75;99534.16;4484330;32;33252;-79
2022/11/20 03:19:51;;;;;;;29.40;13.13;;;;;;;5.31;70.54;99541.78;4485477;32;33553;-76
2022/11/20 03:22:18;;;;;;;30.95;12.07;;;;;;;5.21;70.62;99543.66;4484405;32;34471;-78
2022/11/20 03:24:46;;;;;;;31.92;14.57;;;;;;;5.56;69.70;99568.06;4482293;32;33449;-76
2022/11/20 03:27:13;;;;;;;33.30;13.48;;;;;;;5.11;70.68;99573.03;4484945;32;32956;-77
2022/11/20 03:29:40;;;;;;;33.45;15.70;;;;;;;5.25;70.30;99569.66;4485157;32;33375;-76
2022/11/20 03:32:08;;;;;;;33.75;14.38;;;;;;;5.39;70.00;99567.00;4484410;32;33728;-75
2022/11/20 03:34:36;;;;;;;32.75;14.07;;;;;;;5.82;68.89;99565.38;4482676;32;33753;-75
2022/11/20 03:37:03;;;;;;;29.35;12.90;;;;;;;6.13;67.48;99561.19;4484338;32;33500;-76
2022/11/20 03:39:30;;;;;;;30.45;13.35;;;;;;;6.67;64.97;99554.88;4484222;32;33305;-78
2022/11/20 03:41:58;;;;;;;28.87;12.43;;;;;;;6.68;64.66;99556.63;4483620;32;34064;-76
2022/11/20 03:44:25;;;;;;;30.20;13.05;;;;;;;6.62;64.56;99544.28;4485012;32;34480;-76
2022/11/20 03:46:53;;;;;;;30.40;13.43;;;;;;;6.73;63.89;99544.91;4482001;32;33512;-76
2022/11/20 03:49:20;;;;;;;28.67;13.52;;;;;;;6.78;63.53;99552.88;4484200;32;33517;-75
2022/11/20 03:51:48;;;;;;;31.67;13.80;;;;;;;6.83;63.14;99552.31;4481668;32;33932;-79
2022/11/20 03:54:17;;;;;;;34.08;13.95;;;;;;;6.59;63.77;99558.69;4483905;32;33645;-78
2022/11/20 03:56:44;;;;;;;28.67;12.70;;;;;;;4.46;70.71;99573.16;4484558;32;33179;-78
2022/11/20 03:59:12;;;;;;;29.80;13.27;;;;;;;4.67;72.19;99565.94;4483989;32;33666;-76
2022/11/20 04:01:39;;;;;;;30.42;13.43;;;;;;;5.82;67.87;99564.50;4482972;32;33693;-76
2022/11/20 04:04:14;;;;;;;33.20;14.50;;;;;;;3.57;75.17;99552.72;4480831;32;34315;-78
2022/11/20 04:06:41;;;;;;;29.23;12.45;;;;;;;3.48;77.20;99553.00;4483997;32;33452;-76
2022/11/20 04:09:09;;;;;;;27.48;12.95;;;;;;;3.41;77.75;99547.34;4485075;32;34330;-79
2022/11/20 04:11:39;;;;;;;34.53;13.98;;;;;;;4.64;73.52;99537.56;4484464;32;34072;-75
2022/11/20 04:14:13;;;;;;;31.27;13.15;;;;;;;5.56;69.04;99532.97;4484693;32;32920;-77
2022/11/20 04:16:41;;;;;;;30.85;12.55;;;;;;;5.78;67.44;99529.13;4483620;32;33135;-75
2022/11/20 04:19:13;;;;;;;28.75;13.95;;;;;;;5.79;66.68;99516.34;4484648;32;33679;-75
2022/11/20 04:21:42;;;;;;;28.52;13.23;;;;;;;5.72;66.59;99515.09;4484505;32;34395;-77
2022/11/20 04:24:10;;;;;;;26.42;13.32;;;;;;;5.60;66.51;99509.25;4482225;32;34409;-77
2022/11/20 04:26:37;;;;;;;27.45;13.32;;;;;;;5.40;67.43;99504.59;4483801;32;34091;-75
2022/11/20 04:29:05;;;;;;;23.30;11.93;;;;;;;5.74;66.14;99517.78;4483270;32;33662;-76
2022/11/20 04:31:34;;;;;;;28.67;12.70;;;;;;;5.72;66.05;99515.09;4481659;32;34515;-76
2022/11/20 04:34:03;;;;;;;27.77;11.60;;;;;;;5.68;66.20;99515.72;4483219;32;34062;-77
2022/11/20 04:36:31;;;;;;;24.02;11.02;;;;;;;5.59;67.05;99517.75;4483102;32;33440;-77
2022/11/20 04:39:01;;;;;;;26.10;11.68;;;;;;;5.86;65.93;99515.03;4484574;32;33544;-78
2022/11/20 04:41:31;;;;;;;28.75;12.93;;;;;;;5.75;65.96;99514.41;4484597;32;34621;-77
2022/11/20 04:44:02;;;;;;;25.35;12.00;;;;;;;5.77;65.90;99506.78;4484160;32;33709;-75
2022/11/20 04:46:33;;;;;;;25.62;12.25;;;;;;;5.14;68.30;99506.47;4482662;32;32941;-79
2022/11/20 04:49:01;;;;;;;28.33;12.55;;;;;;;4.13;73.32;99512.09;4484538;32;34299;-76
2022/11/20 04:51:28;;;;;;;23.12;10.70;;;;;;;4.03;74.25;99502.00;4484035;32;33653;-75
2022/11/20 04:53:56;;;;;;;28.27;12.02;;;;;;;4.26;74.21;99500.06;4482349;32;34620;-78
2022/11/20 04:56:24;;;;;;;28.12;13.60;;;;;;;3.60;77.07;99488.03;4482585;32;33413;-78
2022/11/20 04:58:51;;;;;;;27.20;12.80;;;;;;;4.05;75.79;99492.75;4483153;32;33504;-78
2022/11/20 05:01:20;;;;;;;26.20;11.98;;;;;;;4.05;76.15;99486.75;4483646;32;34644;-77
2022/11/20 05:03:49;;;;;;;29.30;11.45;;;;;;;3.51;79.06;99501.09;4481558;32;32318;-78
2022/11/20 05:06:18;;;;;;;28.23;12.73;;;;;;;3.25;79.96;99502.78;4483886;32;33720;-76
2022/11/20 05:09:03;;;;;;;30.62;12.77;;;;;;;3.92;77.60;99510.66;4471463;32;34589;-77
2022/11/20 05:11:31;;;;;;;28.90;12.73;;;;;;;3.54;78.63;99506.44;4483754;32;33436;-77
2022/11/20 05:13:59;;;;;;;26.37;12.25;;;;;;;3.57;79.36;99509.19;4483412;32;34497;-80
2022/11/20 05:16:27;;;;;;;26.15;11.85;;;;;;;4.98;73.86;99503.72;4483342;32;33515;-77
2022/11/20 05:18:55;;;;;;;26.50;11.73;;;;;;;5.70;69.90;99495.28;4483350;32;33371;-77
2022/11/20 05:21:22;;;;;;;26.50;12.00;;;;;;;5.85;68.61;99495.25;4483797;32;34793;-78
2022/11/20 05:23:50;;;;;;;26.87;13.18;;;;;;;5.18;70.41;99502.41;4483624;32;34261;-76
2022/11/20 05:26:21;;;;;;;28.33;13.75;;;;;;;4.22;75.75;99505.78;4483814;32;33325;-78
2022/11/20 05:28:49;;;;;;;30.95;13.13;;;;;;;5.57;70.12;99492.75;4483864;32;33685;-79
2022/11/20 05:31:21;;;;;;;29.52;13.73;;;;;;;5.67;68.07;99489.94;4484824;32;32861;-77
2022/11/20 05:33:55;;;;;;;29.17;12.25;;;;;;;5.87;67.82;99480.81;4485202;32;34389;-76
2022/11/20 05:36:23;;;;;;;28.15;12.30;;;;;;;6.08;66.91;99458.97;4485327;32;33499;-75
2022/11/20 05:38:50;;;;;;;28.15;12.88;;;;;;;6.15;66.46;99464.44;4483843;32;33485;-76
2022/11/20 05:41:24;;;;;;;26.43;12.33;;;;;;;6.31;65.63;99456.78;4485644;32;34755;-77
2022/11/20 05:43:52;;;;;;;28.23;12.77;;;;;;;6.27;65.81;99471.16;4485762;32;33663;-79
2022/11/20 05:46:20;;;;;;;23.98;11.70;;;;;;;6.11;66.48;99473.66;4486209;31;33499;-79
2022/11/20 05:48:55;;;;;;;24.17;12.52;;;;;;;6.08;66.29;99494.97;4497850;31;33575;-76
2022/11/20 05:51:23;;;;;;;27.30;12.15;;;;;;;5.51;68.03;99493.28;4488065;31;33273;-80
2022/11/20 05:53:51;;;;;;;28.52;11.90;;;;;;;5.33;69.49;99498.19;4478427;31;33916;-77
2022/11/20 05:56:20;;;;;;;24.98;12.23;;;;;;;5.09;70.30;99495.03;4477895;31;34332;-77
2022/11/20 05:58:47;;;;;;;25.58;11.75;;;;;;;4.32;75.27;99513.28;4491463;31;33870;-78
2022/11/20 06:01:18;;;;;;;23.60;11.20;;;;;;;4.17;74.89;99513.16;4490100;31;33683;-78
2022/11/20 06:03:47;;;;;;;25.58;12.35;;;;;;;5.24;70.83;99502.78;4485044;31;33395;-76
2022/11/20 06:06:15;;;;;;;24.25;11.40;;;;;;;4.42;71.55;99510.50;4485680;31;34133;-77
2022/11/20 06:08:43;;;;;;;23.67;10.73;;;;;;;4.86;71.04;99517.56;4485289;31;33644;-79
2022/11/20 06:11:12;;;;;;;26.05;11.38;;;;;;;5.36;69.03;99507.78;4476996;31;33422;-77
2022/11/20 06:13:41;;;;;;;25.90;12.30;;;;;;;3.44;75.86;99504.03;4484910;31;33476;-79
2022/11/20 06:16:10;;;;;;;24.48;12.52;;;;;;;3.22;78.88;99511.91;4491809;31;34027;-77
2022/11/20 06:18:38;;;;;;;28.90;12.32;;;;;;;2.90;79.82;99508.91;4468066;32;33571;-80
2022/11/20 06:21:09;;;;;;;28.80;13.52;;;;;;;3.86;76.98;99506.03;4485244;32;34638;-77
2022/11/20 06:23:36;;;;;;;29.70;14.43;;;;;;;2.92;79.64;99517.56;4473317;32;33413;-76
2022/11/20 06:26:15;;;;;;;32.03;14.07;;;;;;;3.09;80.09;99505.03;4485487;32;34347;-77
2022/11/20 06:28:42;;;;;;;28.65;13.25;;;;;;;3.13;80.04;99512.19;4474288;32;34388;-77
2022/11/20 06:31:13;;;;;;;33.15;14.00;;;;;;;3.31;79.27;99508.31;4481873;32;33625;-79
2022/11/20 06:33:41;;;;;;;32.50;15.07;;;;;;;3.09;80.70;99515.28;4484639;32;32995;-78
2022/11/20 06:36:10;;;;;;;27.65;13.98;;;;;;;3.03;81.25;99536.22;4485237;32;33390;-75
2022/11/20 06:38:38;;;;;;;29.37;14.55;;;;;;;3.46;79.13;99548.56;4485153;32;33544;-78
2022/11/20 06:41:08;;;;;;;33.35;16.30;;;;;;;2.72;82.73;99554.53;4474842;32;33728;-79
2022/11/20 06:43:36;;;;;;;29.08;13.68;;;;;;;2.95;82.97;99548.50;4468420;32;33791;-78
2022/11/20 06:46:03;;;;;;;30.58;14.25;;;;;;;3.22;80.77;99551.19;4475332;32;34205;-77
2022/11/20 06:48:30;;;;;;;31.33;14.85;;;;;;;2.63;83.80;99556.44;4485544;32;33250;-79
2022/11/20 06:50:58;;;;;;;28.92;14.55;;;;;;;2.81;83.58;99546.63;4485722;31;33710;-78
2022/11/20 06:53:26;;;;;;;32.22;14.65;;;;;;;3.44;82.36;99550.09;4483417;32;33545;-78
2022/11/20 06:55:56;;;;;;;31.12;15.27;;;;;;;3.40;81.24;99538.78;4485519;32;34020;-77
2022/11/20 06:58:26;;;;;;;33.08;14.10;;;;;;;3.47;80.80;99530.72;4485064;32;34467;-79
2022/11/20 07:00:57;;;;;;;26.55;12.77;;;;;;;3.49;80.94;99533.41;4484841;31;33929;-76
2022/11/20 07:03:25;;;;;;;27.48;13.20;;;;;;;3.09;82.40;99529.00;4484248;32;33550;-80
2022/11/20 07:05:55;;;;;;;28.08;12.90;;;;;;;3.45;82.01;99531.41;4485024;32;33034;-75
2022/11/20 07:08:22;;;;;;;26.90;12.55;;;;;;;3.98;80.69;99539.28;4483791;32;33288;-77
2022/11/20 07:10:50;;;;;;;30.55;14.43;;;;;;;3.31;82.68;99536.47;4485249;32;32646;-76
2022/11/20 07:13:17;;;;;;;30.37;14.30;;;;;;;3.04;84.75;99547.38;4483610;32;32344;-78
2022/11/20 07:15:45;;;;;;;29.15;15.13;;;;;;;2.94;85.02;99558.63;4485144;32;33195;-79
2022/11/20 07:18:12;;;;;;;33.63;14.80;;;;;;;3.04;84.76;99557.59;4484908;31;33793;-80
2022/11/20 07:20:40;;;;;;;32.65;15.48;;;;;;;3.07;85.46;99560.34;4484675;32;33969;-78
2022/11/20 07:23:07;;;;;;;29.92;13.85;;;;;;;3.46;83.10;99558.81;4479903;32;33776;-77
2022/11/20 07:25:35;;;;;;;32.65;14.57;;;;;;;4.05;80.79;99554.25;4472328;32;34098;-74
2022/11/20 07:28:03;;;;;;;28.95;12.93;;;;;;;3.14;85.42;99562.56;4484403;32;34593;-75
2022/11/20 07:30:30;;;;;;;29.87;14.05;;;;;;;4.28;81.43;99558.34;4485050;32;33580;-77
2022/11/20 07:32:58;;;;;;;27.83;13.13;;;;;;;4.05;82.18;99566.19;4483749;32;34465;-78
2022/11/20 07:35:25;;;;;;;30.92;13.80;;;;;;;4.56;80.09;99559.25;4484658;32;33373;-76
2022/11/20 07:37:53;;;;;;;33.65;14.93;;;;;;;4.77;78.59;99560.66;4484090;32;34585;-77
2022/11/20 07:40:20;;;;;;;32.22;15.82;;;;;;;4.81;78.95;99557.47;4484915;32;33490;-75
2022/11/20 07:42:52;;;;;;;33.42;15.18;;;;;;;4.82;78.74;99554.09;4484582;31;33827;-78
2022/11/20 07:45:20;;;;;;;33.40;14.52;;;;;;;4.24;81.73;99563.19;4484893;32;33376;-75
2022/11/20 07:47:48;;;;;;;32.58;13.93;;;;;;;4.65;79.42;99567.53;4483396;32;32242;-75
2022/11/20 07:50:16;;;;;;;31.73;14.23;;;;;;;4.45;81.15;99567.13;4483991;32;33840;-79
2022/11/20 07:52:43;;;;;;;28.27;13.65;;;;;;;4.91;78.07;99561.50;4489206;31;36293;-77
2022/11/20 07:55:11;;;;;;;33.47;15.75;;;;;;;4.50;80.67;99564.84;4485530;31;33111;-75
2022/11/20 07:57:39;;;;;;;29.45;14.45;;;;;;;4.73;81.82;99564.69;4490125;31;33815;-76
2022/11/20 08:00:09;;;;;;;33.40;15.40;;;;;;;5.30;78.78;99550.25;4474019;31;33242;-76
2022/11/20 08:02:39;;;;;;;29.15;14.87;;;;;;;5.02;79.37;99551.91;4477116;31;33661;-75
2022/11/20 08:05:08;;;;;;;29.65;13.85;;;;;;;4.88;79.32;99540.78;4482899;31;32647;-78
2022/11/20 08:07:39;;;;;;;28.60;13.60;;;;;;;4.58;81.57;99537.13;4482294;31;33651;-77
2022/11/20 08:10:09;;;;;;;28.95;14.27;;;;;;;5.22;79.96;99533.50;4493196;31;33817;-75
2022/11/20 08:15:31;;;;;;;35.88;16.62;;;;;;;5.38;79.64;99537.00;4495685;31;33335;-75
2022/11/20 08:18:12;;;;;;;36.28;17.30;;;;;;;4.35;83.42;99549.38;4488095;31;34591;-78
2022/11/20 08:21:03;;;;;;;32.08;14.70;;;;;;;4.91;82.21;99539.28;4487382;31;33751;-79
2022/11/20 08:23:31;;;;;;;35.42;16.75;;;;;;;5.76;78.22;99546.16;4484045;32;34550;-75
2022/11/20 08:25:58;;;;;;;33.85;15.95;;;;;;;4.64;82.19;99548.69;4482705;31;33562;-76
2022/11/20 08:28:26;;;;;;;36.80;17.45;;;;;;;4.24;84.15;99535.84;4483722;32;33453;-76
2022/11/20 08:30:58;;;;;;;30.73;16.40;;;;;;;5.25;81.69;99530.22;4483717;32;33876;-74
2022/11/20 08:33:25;;;;;;;33.58;15.63;;;;;;;4.74;82.22;99542.47;4485252;31;34362;-77
2022/11/20 08:35:53;;;;;;;30.45;15.40;;;;;;;3.85;86.73;99555.50;4482280;32;33521;-75
2022/11/20 08:38:21;;;;;;;34.80;15.73;;;;;;;4.69;84.00;99556.69;4483368;32;33561;-77
2022/11/20 08:41:23;;;;;;;32.15;15.38;;;;;;;3.93;86.61;99556.00;4481663;31;33736;-78
2022/11/20 08:43:36;;;;;;;28.30;13.27;;;;;;;4.71;83.85;99555.09;4480258;32;34478;-76
2022/11/20 08:46:04;;;;;;;28.73;13.55;;;;;;;4.22;86.00;99564.75;4480624;32;33048;-76
2022/11/20 08:48:31;;;;;;;30.02;14.43;;;;;;;4.58;85.22;99561.13;4483749;32;33482;-76
2022/11/20 08:50:59;;;;;;;29.33;14.02;;;;;;;4.44;86.52;99569.59;4484049;32;32873;-76
2022/11/20 08:53:27;;;;;;;28.55;14.50;;;;;;;4.12;86.80;99566.69;4483508;32;34339;-76
2022/11/20 08:55:56;;;;;;;30.45;14.55;;;;;;;4.09;87.53;99571.59;4483764;31;33548;-76
2022/11/20 08:58:24;;;;;;;29.87;15.18;;;;;;;4.08;87.89;99580.09;4474858;32;32400;-76
2022/11/20 09:00:52;;;;;;;32.67;15.75;;;;;;;4.18;87.74;99590.97;4479400;31;32218;-75
2022/11/20 09:03:20;;;;;;;29.67;15.15;;;;;;;4.35;86.53;99585.28;4465687;32;32455;-78
2022/11/20 09:05:48;;;;;;;29.17;14.32;;;;;;;4.67;85.46;99584.78;4486029;32;33922;-75
2022/11/20 09:08:15;;;;;;;30.55;14.52;;;;;;;4.53;85.26;99589.03;4485820;32;34619;-79
2022/11/20 09:10:42;;;;;;;29.50;14.80;;;;;;;4.63;85.73;99582.81;4486984;31;33666;-77
2022/11/20 09:13:10;;;;;;;32.72;15.05;;;;;;;5.85;80.42;99582.66;4476590;32;33680;-75
2022/11/20 09:15:37;;;;;;;34.05;14.07;;;;;;;5.59;78.99;99584.53;4479472;32;33934;-79
2022/11/20 09:18:05;;;;;;;32.50;14.30;;;;;;;5.24;80.39;99580.69;4485171;32;33869;-77
2022/11/20 09:20:32;;;;;;;27.08;12.90;;;;;;;5.44;79.90;99583.59;4485299;32;34055;-76
2022/11/20 09:23:00;;;;;;;28.62;13.62;;;;;;;4.73;81.11;99586.88;4483797;32;33832;-78
2022/11/20 09:25:27;;;;;;;31.20;14.73;;;;;;;5.22;79.22;99592.56;4480864;32;33047;-77
2022/11/20 09:27:58;;;;;;;30.12;14.70;;;;;;;4.50;82.24;99586.28;4482518;32;34438;-75
2022/11/20 09:30:27;;;;;;;32.75;16.27;;;;;;;4.42;82.72;99581.44;4481503;32;33864;-77
2022/11/20 09:32:55;;;;;;;30.98;14.25;;;;;;;4.97;81.79;99573.84;4479208;32;33438;-76
2022/11/20 09:35:22;;;;;;;32.08;16.85;;;;;;;5.12;80.93;99574.81;4485332;32;34555;-75
2022/11/20 09:37:50;;;;;;;30.80;15.00;;;;;;;5.19;80.58;99576.94;4477458;31;33405;-77
2022/11/20 09:40:26;;;;;;;33.15;16.12;;;;;;;5.34;79.28;99576.13;4484093;32;33943;-79
2022/11/20 09:43:07;;;;;;;31.73;15.43;;;;;;;5.17;80.39;99575.97;4473960;32;34614;-75
2022/11/20 09:45:58;;;;;;;39.50;19.23;;;;;;;4.76;82.15;99584.50;4465226;32;33003;-78
2022/11/20 09:48:47;;;;;;;42.75;22.10;;;;;;;3.86;86.33;99582.00;4470080;32;33384;-77
2022/11/20 09:51:42;;;;;;;33.10;15.57;;;;;;;4.31;86.53;99578.19;4484544;32;34375;-79
2022/11/20 09:54:18;;;;;;;32.63;14.85;;;;;;;4.81;83.94;99575.44;4481512;32;33588;-77
2022/11/20 09:56:59;;;;;;;33.05;14.55;;;;;;;5.28;80.91;99576.66;4485102;32;33533;-76
2022/11/20 09:59:39;;;;;;;32.30;16.25;;;;;;;5.39;80.45;99574.72;4464180;32;33814;-79
2022/11/20 10:02:16;;;;;;;32.78;14.87;;;;;;;4.38;84.82;99575.22;4482377;31;33932;-80
2022/11/20 10:04:53;;;;;;;35.50;15.38;;;;;;;5.20;82.57;99568.47;4481211;31;33575;-80
2022/11/20 10:07:24;;;;;;;30.60;13.70;;;;;;;5.72;80.81;99566.50;4481468;31;34083;-78
2022/11/20 10:10:00;;;;;;;31.37;15.23;;;;;;;6.10;78.44;99565.38;4476632;31;34513;-80
2022/11/20 10:12:55;;;;;;;30.52;14.63;;;;;;;5.58;81.65;99561.31;4471259;32;33904;-76
2022/11/20 10:16:18;;;;;;;28.23;13.65;;;;;;;5.53;79.92;99553.34;4483786;32;33956;-79
2022/11/20 10:18:52;;;;;;;33.58;14.60;;;;;;;4.90;80.78;99547.75;4466312;32;33207;-78
2022/11/20 10:21:44;;;;;;;30.33;15.00;;;;;;;5.39;80.63;99538.75;4476914;31;33858;-77
2022/11/20 10:24:36;;;;;;;30.83;14.80;;;;;;;5.59;80.71;99533.16;4474633;32;33267;-76
2022/11/20 10:27:18;;;;;;;35.67;16.98;;;;;;;6.64;74.95;99516.94;4476415;32;34449;-77
2022/11/20 10:29:49;;;;;;;31.70;14.57;;;;;;;5.86;77.70;99530.47;4484525;32;33230;-77
2022/11/20 10:32:20;;;;;;;32.63;15.07;;;;;;;5.54;79.73;99537.13;4482199;32;33816;-77
2022/11/20 10:34:53;;;;;;;31.00;14.68;;;;;;;5.89;77.22;99523.81;4470187;32;33455;-81
2022/11/20 10:37:26;;;;;;;30.80;14.50;;;;;;;6.30;76.18;99527.06;4485932;31;32886;-81
2022/11/20 10:40:17;;;;;;;29.30;13.90;;;;;;;5.31;79.02;99521.22;4476076;32;33312;-77
2022/11/20 10:42:50;;;;;;;31.05;14.82;;;;;;;6.20;76.26;99514.44;4474912;32;34623;-79
2022/11/20 10:45:24;;;;;;;32.47;15.68;;;;;;;6.47;73.64;99516.03;4482072;32;32898;-78
2022/11/20 10:47:58;;;;;;;37.72;17.15;;;;;;;5.63;77.56;99519.69;4483461;32;32520;-78
2022/11/20 10:50:26;;;;;;;30.88;14.52;;;;;;;5.71;76.18;99507.31;4480950;32;32752;-77
2022/11/20 10:53:23;;;;;;;39.55;18.85;;;;;;;5.25;77.37;99515.72;4483011;32;33925;-79
2022/11/20 10:55:56;;;;;;;30.62;13.82;;;;;;;6.25;73.97;99519.06;4464158;31;34176;-78
2022/11/20 10:58:39;;;;;;;28.05;14.05;;;;;;;5.94;76.62;99521.50;4480239;32;34694;-77
2022/11/20 11:01:15;;;;;;;32.60;14.87;;;;;;;5.87;77.17;99529.66;4482471;32;33005;-78
2022/11/20 11:03:43;;;;;;;30.42;14.90;;;;;;;6.52;73.74;99538.56;4485384;32;33974;-78
2022/11/20 11:06:30;;;;;;;37.22;17.20;;;;;;;6.56;73.14;99531.09;4484544;32;33900;-77
2022/11/20 11:09:03;;;;;;;34.60;15.70;;;;;;;6.25;75.04;99549.03;4481974;32;33730;-78
2022/11/20 11:11:32;;;;;;;39.45;22.17;;;;;;;6.95;72.15;99530.63;4481112;32;34239;-78
2022/11/20 11:14:10;;;;;;;32.63;16.98;;;;;;;5.69;76.63;99529.47;4480409;32;34516;-77
2022/11/20 11:16:52;;;;;;;32.53;16.55;;;;;;;6.04;76.33;99544.41;4480031;31;34613;-79
2022/11/20 11:19:20;;;;;;;34.75;17.08;;;;;;;6.12;75.88;99551.69;4483185;32;34314;-79
2022/11/20 11:21:51;;;;;;;36.67;19.67;;;;;;;5.89;76.41;99553.75;4479497;32;33521;-76
2022/11/20 11:24:27;;;;;;;32.65;16.12;;;;;;;6.89;73.94;99546.63;4476186;32;34000;-78
2022/11/20 11:27:13;;;;;;;32.95;16.50;;;;;;;6.55;74.92;99549.00;4480925;32;33418;-78
2022/11/20 11:29:45;;;;;;;29.12;14.82;;;;;;;6.09;75.77;99553.28;4483863;32;34328;-79
2022/11/20 11:32:18;;;;;;;32.95;15.75;;;;;;;6.99;71.15;99548.03;4482416;32;33509;-78
2022/11/20 11:35:02;;;;;;;29.05;13.62;;;;;;;6.53;73.71;99542.88;4481173;32;33604;-77
2022/11/20 11:37:35;;;;;;;34.35;16.55;;;;;;;7.07;70.96;99546.78;4484346;32;34407;-79
2022/11/20 11:40:05;;;;;;;30.00;15.45;;;;;;;6.80;72.88;99539.31;4482256;31;33948;-79
2022/11/20 11:42:56;;;;;;;30.17;13.90;;;;;;;7.27;71.13;99533.25;4476297;31;32609;-79
2022/11/20 11:45:24;;;;;;;27.95;13.93;;;;;;;7.49;70.14;99531.81;4480623;31;34415;-78
2022/11/20 11:47:53;;;;;;;36.63;17.83;;;;;;;7.16;72.25;99526.63;4479831;32;33894;-78